createdAt,value
2018-12-19T00:01:07.219Z,98065.90
2018-12-19T00:03:38.637Z,98070.39
2018-12-19T00:06:10.083Z,98065.48
2018-12-19T00:08:39.486Z,98061.09
2018-12-19T00:11:08.895Z,98057.91
2018-12-19T00:13:39.335Z,98057.06
2018-12-19T00:16:08.747Z,98050.41
2018-12-19T00:18:38.228Z,98054.43
2018-12-19T00:21:07.639Z,98050.91
2018-12-19T00:23:37.063Z,98055.86
2018-12-19T00:26:06.468Z,98055.39
2018-12-19T00:28:37.916Z,98051.92
2018-12-19T00:31:09.344Z,98053.73
2018-12-19T00:33:40.792Z,98050.58
2018-12-19T00:36:11.331Z,98038.59
2018-12-19T00:38:41.804Z,98038.59
2018-12-19T00:41:12.355Z,98036.37
2018-12-19T00:43:41.771Z,98039.52
2018-12-19T00:46:11.180Z,98041.33
2018-12-19T00:48:40.620Z,98036.45
2018-12-19T00:51:10.029Z,98035.17
2018-12-19T00:53:39.700Z,98036.52
2018-12-19T00:56:09.103Z,98039.20
2018-12-19T00:58:38.540Z,98038.83
2018-12-19T01:01:09.087Z,98042.85
2018-12-19T01:03:38.525Z,98038.91
2018-12-19T01:06:08.087Z,98042.94
2018-12-19T01:08:37.526Z,98043.00
2018-12-19T01:11:08.490Z,98038.50
2018-12-19T01:13:37.920Z,98034.94
2018-12-19T01:16:07.324Z,98039.93
2018-12-19T01:18:36.768Z,98039.93
2018-12-19T01:21:06.214Z,98039.06
2018-12-19T01:23:35.615Z,98044.89
2018-12-19T01:26:05.015Z,98040.86
2018-12-19T01:28:34.431Z,98037.34
2018-12-19T01:31:03.846Z,98037.39
2018-12-19T01:33:33.253Z,98031.56
2018-12-19T01:36:02.656Z,98030.68
2018-12-19T01:38:32.075Z,98029.43
2018-12-19T01:41:01.814Z,98030.30
2018-12-19T01:43:31.579Z,98027.70
2018-12-19T01:46:01.231Z,98030.39
2018-12-19T01:48:30.893Z,98025.95
2018-12-19T01:51:00.322Z,98012.07
2018-12-19T01:53:29.912Z,98006.79
2018-12-19T01:55:59.824Z,98009.94
2018-12-19T01:58:29.312Z,98009.06
2018-12-19T02:00:58.736Z,98005.50
2018-12-19T02:03:28.138Z,98014.05
2018-12-19T02:05:57.565Z,98003.37
2018-12-19T02:08:26.987Z,98002.91
2018-12-19T02:10:56.454Z,97995.82
2018-12-19T02:13:25.851Z,98003.87
2018-12-19T02:15:55.284Z,98003.00
2018-12-19T02:18:24.688Z,98006.15
2018-12-19T02:20:54.119Z,98009.80
2018-12-19T02:23:23.516Z,98009.85
2018-12-19T02:25:52.943Z,98005.83
2018-12-19T02:28:22.355Z,98008.05
2018-12-19T02:30:51.767Z,98004.02
2018-12-19T02:33:22.171Z,98001.34
2018-12-19T02:35:51.594Z,97995.18
2018-12-19T02:38:21.001Z,98001.34
2018-12-19T02:40:50.472Z,97995.18
2018-12-19T02:43:19.879Z,97992.50
2018-12-19T02:45:49.279Z,97988.94
2018-12-19T02:48:18.701Z,97985.88
2018-12-19T02:50:48.131Z,97981.38
2018-12-19T02:53:17.543Z,97976.07
2018-12-19T02:55:46.952Z,97975.61
2018-12-19T02:58:17.476Z,97976.48
2018-12-19T03:00:46.875Z,97973.39
2018-12-19T03:03:16.317Z,97977.83
2018-12-19T03:05:45.717Z,97973.89
2018-12-19T03:08:15.127Z,97976.16
2018-12-19T03:10:44.543Z,97978.38
2018-12-19T03:13:13.975Z,97974.82
2018-12-19T03:15:43.402Z,97968.20
2018-12-19T03:18:12.950Z,97966.86
2018-12-19T03:20:42.395Z,97967.33
2018-12-19T03:23:11.866Z,97970.48
2018-12-19T03:25:41.276Z,97964.27
2018-12-19T03:28:10.730Z,97970.98
2018-12-19T03:30:40.139Z,97966.08
2018-12-19T03:33:10.584Z,97970.09
2018-12-19T03:35:39.984Z,97974.13
2018-12-19T03:38:11.731Z,97970.09
2018-12-19T03:40:41.140Z,97975.05
2018-12-19T03:43:10.540Z,97976.90
2018-12-19T03:45:39.976Z,97972.38
2018-12-19T03:48:13.489Z,97976.02
2018-12-19T03:50:43.147Z,97975.61
2018-12-19T03:53:12.553Z,97970.24
2018-12-19T03:55:41.995Z,97974.21
2018-12-19T03:58:11.664Z,97969.40
2018-12-19T04:00:41.238Z,97969.31
2018-12-19T04:03:10.673Z,97966.22
2018-12-19T04:05:40.128Z,97963.16
2018-12-19T04:08:09.555Z,97965.37
2018-12-19T04:10:38.994Z,97958.67
2018-12-19T04:13:08.655Z,97961.81
2018-12-19T04:15:38.340Z,97961.44
2018-12-19T04:18:07.749Z,97958.75
2018-12-19T04:20:37.194Z,97962.28
2018-12-19T04:23:06.743Z,97966.30
2018-12-19T04:25:36.177Z,97962.78
2018-12-19T04:28:05.593Z,97961.81
2018-12-19T04:30:38.167Z,97956.08
2018-12-19T04:33:07.616Z,97956.45
2018-12-19T04:35:37.309Z,97955.58
2018-12-19T04:38:06.722Z,97953.39
2018-12-19T04:40:36.177Z,97954.32
2018-12-19T04:43:05.615Z,97954.23
2018-12-19T04:45:35.025Z,97954.23
2018-12-19T04:48:04.467Z,97961.44
2018-12-19T04:50:33.888Z,97967.65
2018-12-19T04:53:03.304Z,97969.49
2018-12-19T04:55:32.731Z,97974.36
2018-12-19T04:58:02.169Z,97973.89
2018-12-19T05:00:31.611Z,97972.17
2018-12-19T05:03:01.100Z,97971.30
2018-12-19T05:05:31.449Z,97970.42
2018-12-19T05:08:00.922Z,97975.70
2018-12-19T05:10:31.301Z,97965.28
2018-12-19T05:13:01.387Z,97968.76
2018-12-19T05:15:30.999Z,97973.52
2018-12-19T05:18:00.475Z,97969.26
2018-12-19T05:20:30.212Z,97970.10
2018-12-19T05:22:59.948Z,97972.23
2018-12-19T05:25:29.560Z,97970.89
2018-12-19T05:27:59.269Z,97967.36
2018-12-19T05:30:30.204Z,97962.84
2018-12-19T05:32:59.639Z,97961.59
2018-12-19T05:35:29.076Z,97964.45
2018-12-19T05:37:58.513Z,97958.11
2018-12-19T05:40:27.932Z,97957.97
2018-12-19T05:42:57.378Z,97964.59
2018-12-19T05:45:26.804Z,97952.10
2018-12-19T05:47:56.267Z,97956.22
2018-12-19T05:50:28.264Z,97955.90
2018-12-19T05:52:57.696Z,97961.55
2018-12-19T05:55:27.103Z,97955.16
2018-12-19T05:57:56.524Z,97959.28
2018-12-19T06:00:25.939Z,97956.59
2018-12-19T06:02:57.377Z,97961.08
2018-12-19T06:05:26.792Z,97961.96
2018-12-19T06:07:56.215Z,97967.73
2018-12-19T06:10:26.336Z,97972.60
2018-12-19T06:12:57.097Z,97976.57
2018-12-19T06:15:26.552Z,97980.97
2018-12-19T06:17:55.983Z,97976.95
2018-12-19T06:20:25.426Z,97984.06
2018-12-19T06:22:54.837Z,97986.20
2018-12-19T06:25:24.292Z,97995.09
2018-12-19T06:27:53.965Z,97995.09
2018-12-19T06:30:23.728Z,97992.81
2018-12-19T06:32:53.136Z,97991.94
2018-12-19T06:35:22.575Z,97995.03
2018-12-19T06:37:51.987Z,97992.35
2018-12-19T06:40:21.424Z,97991.47
2018-12-19T06:42:50.840Z,97996.75
2018-12-19T06:45:20.304Z,97995.03
2018-12-19T06:47:49.719Z,97997.22
2018-12-19T06:50:19.208Z,97994.48
2018-12-19T06:52:48.619Z,97990.87
2018-12-19T06:55:18.056Z,97991.28
2018-12-19T06:57:47.459Z,97992.20
2018-12-19T07:00:16.900Z,97988.09
2018-12-19T07:02:46.315Z,97986.75
2018-12-19T07:05:15.747Z,97994.80
2018-12-19T07:07:45.171Z,97995.68
2018-12-19T07:10:14.608Z,97994.34
2018-12-19T07:12:44.079Z,98000.58
2018-12-19T07:15:13.518Z,97996.55
2018-12-19T07:17:43.213Z,98003.64
2018-12-19T07:20:12.650Z,98001.83
2018-12-19T07:22:42.101Z,98004.05
2018-12-19T07:25:11.524Z,98002.24
2018-12-19T07:27:41.005Z,98010.67
2018-12-19T07:30:10.422Z,98007.61
2018-12-19T07:32:39.859Z,98010.12
2018-12-19T07:35:09.286Z,98008.86
2018-12-19T07:37:38.741Z,98003.50
2018-12-19T07:40:08.151Z,98001.69
2018-12-19T07:42:37.592Z,98001.19
2018-12-19T07:45:06.992Z,98006.09
2018-12-19T07:47:36.419Z,98012.34
2018-12-19T07:50:06.160Z,98011.84
2018-12-19T07:52:35.600Z,98007.81
2018-12-19T07:55:05.136Z,98017.99
2018-12-19T07:57:34.576Z,98017.99
2018-12-19T08:00:03.985Z,98012.16
2018-12-19T08:02:33.395Z,98017.53
2018-12-19T08:05:02.823Z,98018.87
2018-12-19T08:07:32.252Z,98017.06
2018-12-19T08:10:01.689Z,98024.65
2018-12-19T08:12:35.980Z,98017.06
2018-12-19T08:15:03.652Z,98013.41
2018-12-19T08:17:33.088Z,98006.70
2018-12-19T08:20:03.824Z,98010.27
2018-12-19T08:22:34.384Z,98007.58
2018-12-19T08:25:03.797Z,97999.53
2018-12-19T08:27:33.225Z,98007.58
2018-12-19T08:30:03.362Z,98009.39
2018-12-19T08:32:32.780Z,98008.45
2018-12-19T08:35:02.219Z,98009.24
2018-12-19T08:37:31.779Z,98005.77
2018-12-19T08:40:01.226Z,98008.37
2018-12-19T08:42:30.621Z,98009.24
2018-12-19T08:45:00.066Z,98011.93
2018-12-19T08:47:29.575Z,97998.05
2018-12-19T08:49:59.139Z,98003.79
2018-12-19T08:52:28.548Z,98000.64
2018-12-19T08:54:57.984Z,97996.20
2018-12-19T08:57:27.432Z,97999.30
2018-12-19T08:59:56.916Z,97998.89
2018-12-19T09:02:26.433Z,98009.56
2018-12-19T09:04:55.860Z,98009.16
2018-12-19T09:07:25.283Z,98006.38
2018-12-19T09:09:54.737Z,98013.09
2018-12-19T09:12:24.165Z,98005.92
2018-12-19T09:14:53.652Z,98001.89
2018-12-19T09:17:23.111Z,98001.52
2018-12-19T09:19:52.684Z,98001.02
2018-12-19T09:22:22.245Z,97993.38
2018-12-19T09:24:51.738Z,97988.00
2018-12-19T09:27:21.156Z,97988.47
2018-12-19T09:29:50.559Z,97987.53
2018-12-19T09:32:19.972Z,97978.98
2018-12-19T09:34:50.327Z,97976.39
2018-12-19T09:37:19.763Z,97975.92
2018-12-19T09:39:49.203Z,97972.28
2018-12-19T09:42:18.629Z,97969.69
2018-12-19T09:44:48.050Z,97963.38
2018-12-19T09:47:17.523Z,97961.62
2018-12-19T09:49:47.008Z,97970.09
2018-12-19T09:52:16.532Z,97961.95
2018-12-19T09:54:45.948Z,97952.65
2018-12-19T09:57:15.400Z,97953.48
2018-12-19T09:59:44.823Z,97940.48
2018-12-19T10:02:14.608Z,97934.14
2018-12-19T10:04:44.029Z,97927.44
2018-12-19T10:07:13.464Z,97919.47
2018-12-19T10:09:42.876Z,97917.66
2018-12-19T10:12:12.325Z,97909.98
2018-12-19T10:14:41.767Z,97906.05
2018-12-19T10:17:11.214Z,97901.09
2018-12-19T10:19:40.636Z,97903.78
2018-12-19T10:22:10.048Z,97903.69
2018-12-19T10:24:44.819Z,97901.47
2018-12-19T10:27:18.322Z,97892.54
2018-12-19T10:29:47.800Z,97893.83
2018-12-19T10:32:17.223Z,97892.08
2018-12-19T10:34:46.740Z,97880.88
2018-12-19T10:37:19.082Z,97882.59
2018-12-19T10:39:48.653Z,97882.13
2018-12-19T10:42:18.063Z,97877.22
2018-12-19T10:44:47.465Z,97878.66
2018-12-19T10:47:16.940Z,97873.75
2018-12-19T10:49:46.372Z,97868.33
2018-12-19T10:52:15.800Z,97862.08
2018-12-19T10:54:46.326Z,97858.52
2018-12-19T10:57:15.738Z,97850.01
2018-12-19T10:59:45.167Z,97849.54
2018-12-19T11:02:14.592Z,97853.56
2018-12-19T11:04:44.012Z,97856.25
2018-12-19T11:07:13.583Z,97850.01
2018-12-19T11:09:43.020Z,97845.11
2018-12-19T11:12:12.456Z,97849.03
2018-12-19T11:14:41.912Z,97848.66
2018-12-19T11:17:11.586Z,97845.52
2018-12-19T11:19:41.060Z,97845.52
2018-12-19T11:22:12.848Z,97839.64
2018-12-19T11:24:42.563Z,97844.17
2018-12-19T11:27:12.068Z,97836.59
2018-12-19T11:29:41.552Z,97839.73
2018-12-19T11:32:11.008Z,97839.27
2018-12-19T11:34:40.626Z,97838.39
2018-12-19T11:37:10.108Z,97841.48
2018-12-19T11:39:39.664Z,97830.75
2018-12-19T11:42:09.151Z,97835.62
2018-12-19T11:44:38.568Z,97827.56
2018-12-19T11:47:07.999Z,97818.17
2018-12-19T11:49:37.425Z,97817.39
2018-12-19T11:52:06.866Z,97817.80
2018-12-19T11:54:36.272Z,97812.02
2018-12-19T11:57:06.060Z,97818.27
2018-12-19T11:59:35.484Z,97812.02
2018-12-19T12:02:06.059Z,97807.53
2018-12-19T12:04:35.476Z,97805.72
2018-12-19T12:07:07.579Z,97802.62
2018-12-19T12:09:36.985Z,97801.28
2018-12-19T12:12:06.493Z,97798.60
2018-12-19T12:14:35.892Z,97798.54
2018-12-19T12:17:05.332Z,97779.44
2018-12-19T12:19:34.775Z,97785.68
2018-12-19T12:22:04.206Z,97787.40
2018-12-19T12:24:33.644Z,97790.55
2018-12-19T12:27:03.084Z,97778.97
2018-12-19T12:29:32.526Z,97785.18
2018-12-19T12:32:01.959Z,97781.16
2018-12-19T12:34:31.397Z,97779.81
2018-12-19T12:37:00.920Z,97781.66
2018-12-19T12:39:30.364Z,97782.50
2018-12-19T12:41:59.833Z,97773.20
2018-12-19T12:44:29.823Z,97770.14
2018-12-19T12:46:59.421Z,97775.41
2018-12-19T12:49:28.934Z,97768.30
2018-12-19T12:51:58.376Z,97765.62
2018-12-19T12:54:27.829Z,97767.83
2018-12-19T12:56:57.299Z,97762.47
2018-12-19T12:59:26.760Z,97759.41
2018-12-19T13:01:56.173Z,97755.38
2018-12-19T13:04:25.628Z,97748.27
2018-12-19T13:06:55.078Z,97746.92
2018-12-19T13:09:24.520Z,97746.92
2018-12-19T13:11:58.841Z,97748.27
2018-12-19T13:14:25.664Z,97744.24
2018-12-19T13:16:55.075Z,97739.84
2018-12-19T13:19:24.518Z,97750.02
2018-12-19T13:21:53.947Z,97745.20
2018-12-19T13:24:23.377Z,97751.92
2018-12-19T13:26:52.812Z,97745.20
2018-12-19T13:29:22.289Z,97742.99
2018-12-19T13:31:52.052Z,97743.09
2018-12-19T13:34:22.383Z,97752.85
2018-12-19T13:36:51.859Z,97746.61
2018-12-19T13:39:21.304Z,97752.76
2018-12-19T13:41:50.727Z,97747.48
2018-12-19T13:44:20.154Z,97747.48
2018-12-19T13:46:49.583Z,97743.09
2018-12-19T13:49:19.008Z,97745.27
2018-12-19T13:51:48.427Z,97744.02
2018-12-19T13:54:17.847Z,97735.60
2018-12-19T13:56:47.281Z,97732.83
2018-12-19T13:59:16.699Z,97735.10
2018-12-19T14:01:46.102Z,97734.26
2018-12-19T14:04:15.536Z,97732.91
2018-12-19T14:06:44.957Z,97724.36
2018-12-19T14:09:14.466Z,97719.56
2018-12-19T14:11:43.869Z,97720.91
2018-12-19T14:14:13.276Z,97716.88
2018-12-19T14:16:42.695Z,97723.22
2018-12-19T14:19:12.119Z,97721.41
2018-12-19T14:21:41.570Z,97725.90
2018-12-19T14:24:10.984Z,97723.22
2018-12-19T14:26:40.454Z,97723.69
2018-12-19T14:29:09.880Z,97726.77
2018-12-19T14:31:39.378Z,97728.58
2018-12-19T14:34:08.856Z,97728.17
2018-12-19T14:36:38.316Z,97723.31
2018-12-19T14:39:08.460Z,97718.00
2018-12-19T14:41:37.889Z,97728.17
2018-12-19T14:44:07.313Z,97724.66
2018-12-19T14:46:36.735Z,97729.14
2018-12-19T14:49:06.197Z,97730.48
2018-12-19T14:51:35.615Z,97729.52
2018-12-19T14:54:05.110Z,97721.09
2018-12-19T14:56:34.527Z,97720.63
2018-12-19T14:59:03.971Z,97718.88
2018-12-19T15:01:33.388Z,97722.53
2018-12-19T15:04:02.872Z,97724.71
2018-12-19T15:06:32.318Z,97727.89
2018-12-19T15:09:01.776Z,97738.63
2018-12-19T15:11:31.492Z,97737.76
2018-12-19T15:14:00.937Z,97735.45
2018-12-19T15:16:31.232Z,97736.77
2018-12-19T15:19:01.514Z,97724.88
2018-12-19T15:21:30.923Z,97728.99
2018-12-19T15:24:00.361Z,97728.90
2018-12-19T15:26:31.519Z,97724.00
2018-12-19T15:29:02.171Z,97714.14
2018-12-19T15:31:31.613Z,97722.66
2018-12-19T15:34:01.067Z,97721.31
2018-12-19T15:36:30.744Z,97724.88
2018-12-19T15:39:00.213Z,97723.91
2018-12-19T15:41:29.636Z,97714.92
2018-12-19T15:43:59.068Z,97712.71
2018-12-19T15:46:28.479Z,97717.98
2018-12-19T15:49:00.793Z,97719.32
2018-12-19T15:51:30.233Z,97723.84
2018-12-19T15:53:59.664Z,97728.24
2018-12-19T15:56:29.086Z,97720.66
2018-12-19T15:58:59.049Z,97720.20
2018-12-19T16:01:28.471Z,97725.56
2018-12-19T16:03:57.881Z,97720.20
2018-12-19T16:06:27.344Z,97710.43
2018-12-19T16:08:57.232Z,97711.22
2018-12-19T16:11:26.673Z,97702.76
2018-12-19T16:13:56.136Z,97704.97
2018-12-19T16:16:25.584Z,97695.58
2018-12-19T16:18:55.200Z,97697.80
2018-12-19T16:21:24.656Z,97693.77
2018-12-19T16:23:54.116Z,97697.80
2018-12-19T16:26:23.562Z,97691.09
2018-12-19T16:28:52.983Z,97690.13
2018-12-19T16:31:23.796Z,97687.06
2018-12-19T16:33:53.364Z,97678.14
2018-12-19T16:36:22.807Z,97672.78
2018-12-19T16:38:53.050Z,97680.36
2018-12-19T16:41:22.499Z,97680.83
2018-12-19T16:43:51.911Z,97684.39
2018-12-19T16:46:21.365Z,97691.93
2018-12-19T16:48:50.776Z,97691.47
2018-12-19T16:51:20.232Z,97685.23
2018-12-19T16:53:49.797Z,97685.32
2018-12-19T16:56:19.224Z,97674.59
2018-12-19T16:58:48.663Z,97675.47
2018-12-19T17:01:18.215Z,97683.05
2018-12-19T17:03:47.604Z,97678.52
2018-12-19T17:06:16.966Z,97680.73
2018-12-19T17:08:46.311Z,97677.27
2018-12-19T17:11:15.640Z,97665.67
2018-12-19T17:13:45.002Z,97662.15
2018-12-19T17:16:14.369Z,97658.59
2018-12-19T17:18:43.712Z,97660.30
2018-12-19T17:21:13.158Z,97662.20
2018-12-19T17:23:42.520Z,97664.05
2018-12-19T17:26:11.858Z,97666.73
2018-12-19T17:28:41.199Z,97669.79
2018-12-19T17:31:10.528Z,97672.94
2018-12-19T17:33:39.900Z,97673.72
2018-12-19T17:36:09.265Z,97669.32
2018-12-19T17:38:38.613Z,97659.93
2018-12-19T17:41:07.949Z,97655.81
2018-12-19T17:43:37.327Z,97654.37
2018-12-19T17:46:06.667Z,97657.56
2018-12-19T17:48:36.031Z,97660.71
2018-12-19T17:51:05.380Z,97666.45
2018-12-19T17:53:34.727Z,97667.32
2018-12-19T17:56:04.079Z,97651.13
2018-12-19T17:58:33.439Z,97648.45
2018-12-19T18:01:02.809Z,97642.23
2018-12-19T18:03:32.155Z,97628.42
2018-12-19T18:06:01.523Z,97617.59
2018-12-19T18:08:30.858Z,97615.78
2018-12-19T18:11:00.430Z,97617.53
2018-12-19T18:13:30.220Z,97611.70
2018-12-19T18:15:59.600Z,97612.97
2018-12-19T18:18:28.942Z,97611.12
2018-12-19T18:20:58.411Z,97621.80
2018-12-19T18:23:27.747Z,97606.17
2018-12-19T18:25:57.104Z,97609.32
2018-12-19T18:28:26.533Z,97612.41
2018-12-19T18:30:56.608Z,97619.11
2018-12-19T18:33:25.924Z,97612.41
2018-12-19T18:35:55.315Z,97622.58
2018-12-19T18:38:24.652Z,97622.58
2018-12-19T18:40:54.025Z,97622.95
2018-12-19T18:43:23.352Z,97620.06
2018-12-19T18:45:52.699Z,97619.70
2018-12-19T18:48:22.045Z,97613.95
2018-12-19T18:50:51.367Z,97606.75
2018-12-19T18:53:20.717Z,97597.26
2018-12-19T18:55:50.056Z,97610.11
2018-12-19T18:58:19.389Z,97608.30
2018-12-19T19:00:49.003Z,97609.73
2018-12-19T19:03:18.892Z,97617.79
2018-12-19T19:05:48.267Z,97612.32
2018-12-19T19:08:18.046Z,97611.45
2018-12-19T19:10:48.075Z,97608.20
2018-12-19T19:13:19.791Z,97616.66
2018-12-19T19:15:49.012Z,97614.84
2018-12-19T19:18:18.412Z,97601.33
2018-12-19T19:20:48.295Z,97597.30
2018-12-19T19:23:17.652Z,97589.62
2018-12-19T19:25:46.996Z,97581.50
2018-12-19T19:28:16.388Z,97585.33
2018-12-19T19:30:45.737Z,97579.80
2018-12-19T19:33:15.143Z,97583.25
2018-12-19T19:35:44.504Z,97579.13
2018-12-19T19:38:13.876Z,97570.50
2018-12-19T19:40:43.260Z,97573.39
2018-12-19T19:43:12.722Z,97576.75
2018-12-19T19:45:42.119Z,97576.65
2018-12-19T19:48:11.504Z,97573.39
2018-12-19T19:50:40.848Z,97565.34
2018-12-19T19:53:10.248Z,97579.16
2018-12-19T19:55:39.576Z,97571.98
2018-12-19T19:58:09.948Z,97564.77
2018-12-19T20:00:39.314Z,97572.35
2018-12-19T20:03:08.725Z,97580.41
2018-12-19T20:05:38.079Z,97571.98
2018-12-19T20:08:08.123Z,97561.61
2018-12-19T20:10:37.548Z,97548.96
2018-12-19T20:13:06.970Z,97543.12
2018-12-19T20:15:36.404Z,97545.34
2018-12-19T20:18:07.049Z,97537.55
2018-12-19T20:20:36.541Z,97516.00
2018-12-19T20:23:06.048Z,97524.99
2018-12-19T20:25:35.574Z,97528.55
2018-12-19T20:28:05.141Z,97532.95
2018-12-19T20:30:35.696Z,97537.27
2018-12-19T20:33:05.232Z,97529.52
2018-12-19T20:35:34.808Z,97518.77
2018-12-19T20:38:04.338Z,97523.74
2018-12-19T20:40:33.879Z,97527.41
2018-12-19T20:43:40.117Z,97535.83
2018-12-19T20:46:09.768Z,97522.33
2018-12-19T20:48:39.109Z,97519.55
2018-12-19T20:51:09.459Z,97519.14
2018-12-19T20:53:38.856Z,97521.25
2018-12-19T20:56:08.240Z,97530.95
2018-12-19T20:58:37.685Z,97531.14
2018-12-19T21:01:07.226Z,97532.31
2018-12-19T21:03:36.648Z,97525.09
2018-12-19T21:06:06.048Z,97526.37
2018-12-19T21:08:35.433Z,97515.89
2018-12-19T21:11:04.825Z,97514.07
2018-12-19T21:13:34.240Z,97497.95
2018-12-19T21:16:03.738Z,97492.98
2018-12-19T21:18:38.173Z,97498.36
2018-12-19T21:21:07.609Z,97502.38
2018-12-19T21:23:37.013Z,97513.53
2018-12-19T21:26:06.408Z,97518.91
2018-12-19T21:28:35.780Z,97518.80
2018-12-19T21:31:05.101Z,97518.43
2018-12-19T21:33:34.468Z,97522.83
2018-12-19T21:36:03.875Z,97512.08
2018-12-19T21:38:33.352Z,97499.52
2018-12-19T21:41:03.553Z,97510.27
2018-12-19T21:43:32.961Z,97516.61
2018-12-19T21:46:02.354Z,97504.02
2018-12-19T21:48:31.732Z,97502.68
2018-12-19T21:51:02.031Z,97507.22
2018-12-19T21:53:31.378Z,97506.70
2018-12-19T21:56:00.716Z,97509.50
2018-12-19T21:58:30.079Z,97509.90
2018-12-19T22:00:59.651Z,97503.66
2018-12-19T22:03:29.163Z,97499.16
2018-12-19T22:05:58.509Z,97498.28
2018-12-19T22:08:27.944Z,97509.94
2018-12-19T22:10:57.352Z,97509.94
2018-12-19T22:13:26.766Z,97507.22
2018-12-19T22:15:56.121Z,97504.53
2018-12-19T22:18:31.694Z,97508.55
2018-12-19T22:21:01.111Z,97506.81
2018-12-19T22:23:30.493Z,97498.28
2018-12-19T22:25:59.912Z,97492.98
2018-12-19T22:28:29.412Z,97498.83
2018-12-19T22:30:58.831Z,97494.91
2018-12-19T22:33:28.380Z,97499.00
2018-12-19T22:35:57.784Z,97497.59
2018-12-19T22:38:27.148Z,97487.02
2018-12-19T22:40:56.527Z,97484.04
2018-12-19T22:43:25.905Z,97487.30
2018-12-19T22:45:55.349Z,97477.53
2018-12-19T22:48:27.794Z,97480.80
2018-12-19T22:50:57.298Z,97478.59
2018-12-19T22:53:26.679Z,97495.17
2018-12-19T22:55:56.121Z,97495.74
2018-12-19T22:58:25.550Z,97491.81
2018-12-19T23:01:00.147Z,97493.56
2018-12-19T23:03:36.800Z,97491.81
2018-12-19T23:06:06.155Z,97484.23
2018-12-19T23:08:35.570Z,97481.66
2018-12-19T23:11:04.966Z,97475.91
2018-12-19T23:13:34.482Z,97466.12
2018-12-19T23:16:05.508Z,97469.27
2018-12-19T23:18:40.403Z,97467.16
2018-12-19T23:21:15.274Z,97457.77
2018-12-19T23:23:50.252Z,97464.11
2018-12-19T23:26:21.128Z,97466.40
2018-12-19T23:28:56.605Z,97453.55
2018-12-19T23:31:26.021Z,97453.18
2018-12-19T23:33:55.466Z,97447.81
2018-12-19T23:36:24.812Z,97447.91
2018-12-19T23:38:54.169Z,97452.41
2018-12-19T23:41:23.492Z,97450.67
2018-12-19T23:43:52.867Z,97439.09
2018-12-19T23:46:22.216Z,97437.35
2018-12-19T23:48:51.592Z,97424.03
2018-12-19T23:51:20.939Z,97430.27
2018-12-19T23:53:50.286Z,97441.48
2018-12-19T23:56:19.745Z,97456.25
2018-12-19T23:58:49.143Z,97444.27
